Time;durP1;ratioP1;P1;durP2;ratioP2;P2;SDS_P1;SDS_P2;PMS_P1;PMS_P2;Temp;Humidity;BMP_temperature;BMP_pressure;BME280_temperature;BME280_humidity;BME280_pressure;Samples;Min_cycle;Max_cycle;Signal;HPM_P1;HPM_P2
2022/05/29 00:08:38;;;;;;;2.47;1.27;;;;;;;24.16;31.32;100149.78;20750028;27;98899;-78
2022/05/29 00:18:39;;;;;;;2.95;1.25;;;;;;;24.17;31.42;100140.88;20791647;27;98351;-79
2022/05/29 00:28:39;;;;;;;1.50;1.10;;;;;;;24.15;31.43;100137.53;20771056;27;97480;-80
2022/05/29 00:38:44;;;;;;;2.70;1.10;;;;;;;24.14;31.62;100125.28;20790042;27;101057;-79
2022/05/29 00:48:45;;;;;;;1.70;1.08;;;;;;;24.10;31.46;100121.25;20796716;27;98489;-79
2022/05/29 00:58:45;;;;;;;2.05;1.10;;;;;;;24.04;31.48;100101.50;20802682;27;97919;-78
2022/05/29 01:08:46;;;;;;;2.08;1.10;;;;;;;24.04;31.35;100098.03;20808609;27;97330;-79
2022/05/29 01:19:18;;;;;;;1.42;1.10;;;;;;;24.01;31.43;100093.00;20803334;27;96948;-79
2022/05/29 01:29:49;;;;;;;1.65;1.20;;;;;;;24.01;31.46;100090.38;20770497;27;97729;-79
2022/05/29 01:40:07;;;;;;;2.83;1.00;;;;;;;24.02;31.46;100092.88;20771672;27;99228;-79
2022/05/29 01:50:33;;;;;;;1.35;0.98;;;;;;;24.01;31.33;100099.16;20786639;27;101418;-79
2022/05/29 02:00:35;;;;;;;2.35;1.23;;;;;;;24.01;31.47;100106.25;20782473;27;100066;-79
2022/05/29 02:10:46;;;;;;;1.13;0.80;;;;;;;24.00;31.61;100094.00;20792465;27;100098;-79
2022/05/29 02:20:50;;;;;;;1.98;1.05;;;;;;;24.00;31.52;100086.06;20786243;27;99746;-78
2022/05/29 02:31:22;;;;;;;2.13;1.08;;;;;;;23.97;31.53;100077.44;20773683;27;98874;-78
2022/05/29 02:41:54;;;;;;;1.53;0.93;;;;;;;23.96;31.80;100073.13;20790647;27;99682;-79
2022/05/29 02:52:01;;;;;;;3.78;1.40;;;;;;;23.92;31.73;100065.59;20775399;27;97192;-79
2022/05/29 03:02:26;;;;;;;1.88;0.93;;;;;;;23.93;31.92;100067.31;20798114;27;98229;-79
2022/05/29 03:12:32;;;;;;;2.22;1.10;;;;;;;23.91;31.91;100051.56;20789431;27;97557;-77
2022/05/29 03:22:38;;;;;;;1.50;1.00;;;;;;;23.93;31.83;100051.44;20764976;27;101377;-79
2022/05/29 03:32:39;;;;;;;2.17;1.08;;;;;;;23.92;31.77;100047.94;20766705;27;97588;-80
2022/05/29 03:42:42;;;;;;;1.50;1.10;;;;;;;23.91;32.04;100030.41;20750233;27;97756;-79
2022/05/29 03:52:42;;;;;;;;;;;;;;;23.91;32.09;100043.63;20764402;27;97922;-79
2022/05/29 04:02:44;;;;;;;1.25;0.90;;;;;;;23.88;32.08;100043.91;20795246;27;98590;-79
2022/05/29 04:12:48;;;;;;;4.00;1.00;;;;;;;23.88;32.01;100053.66;20777178;27;98088;-80
2022/05/29 04:22:48;;;;;;;1.88;1.00;;;;;;;23.86;32.28;100055.59;20795301;27;98686;-79
2022/05/29 04:33:01;;;;;;;1.98;1.15;;;;;;;23.85;31.99;100069.78;20797378;27;97803;-78
2022/05/29 04:43:03;;;;;;;4.00;1.13;;;;;;;23.87;32.17;100063.38;20806689;27;98404;-80
2022/05/29 04:53:05;;;;;;;1.52;1.10;;;;;;;23.89;32.03;100077.31;20798531;27;97191;-80
2022/05/29 05:03:07;;;;;;;1.10;0.90;;;;;;;23.88;32.35;100064.25;20786610;27;98188;-80
2022/05/29 05:13:08;;;;;;;2.80;1.00;;;;;;;23.87;32.38;100054.63;20806761;27;98298;-79
2022/05/29 05:23:10;;;;;;;1.83;0.90;;;;;;;23.87;32.24;100039.59;20793657;27;100237;-79
2022/05/29 05:33:10;;;;;;;3.03;0.80;;;;;;;23.89;32.21;100042.94;20803197;27;97800;-79
2022/05/29 05:43:11;;;;;;;1.88;0.80;;;;;;;23.92;32.33;100052.38;20806005;27;100283;-79
2022/05/29 05:53:12;;;;;;;4.97;1.10;;;;;;;23.94;32.11;100035.41;20810795;27;100521;-79
2022/05/29 06:03:13;;;;;;;1.55;0.90;;;;;;;23.99;32.50;100029.69;20781299;27;97974;-80
2022/05/29 06:13:13;;;;;;;1.63;0.80;;;;;;;23.93;29.17;100028.47;20790949;27;97570;-78
2022/05/29 06:23:13;;;;;;;1.60;1.00;;;;;;;23.80;27.46;100036.72;20798868;27;97785;-78
2022/05/29 06:33:14;;;;;;;3.08;0.90;;;;;;;23.69;26.84;100036.84;20774469;27;96986;-78
2022/05/29 06:43:15;;;;;;;3.23;0.97;;;;;;;23.43;26.76;100040.13;20778768;27;106151;-78
2022/05/29 06:53:16;;;;;;;1.60;0.80;;;;;;;23.34;26.44;100041.00;20712185;27;97310;-77
2022/05/29 07:13:37;;;;;;;2.28;1.00;;;;;;;23.12;26.50;100034.16;20719512;27;97155;-80
2022/05/29 07:23:37;;;;;;;1.63;1.00;;;;;;;23.11;26.65;100025.41;20714181;27;97628;-79
2022/05/29 07:33:38;;;;;;;2.03;0.80;;;;;;;22.88;27.00;100027.50;20696277;27;97753;-76
2022/05/29 07:43:39;;;;;;;2.03;0.82;;;;;;;23.00;28.07;100023.75;20715884;27;98349;-77
2022/05/29 07:53:39;;;;;;;2.85;1.40;;;;;;;22.95;27.83;100012.78;20653417;28;98664;-79
2022/05/29 08:03:40;;;;;;;1.63;1.00;;;;;;;23.13;28.07;100004.13;20636685;28;97362;-76
2022/05/29 08:13:40;;;;;;;1.27;0.93;;;;;;;23.00;27.78;99997.34;20628364;28;98712;-77
2022/05/29 08:30:37;;;;;;;2.80;1.00;;;;;;;22.99;27.49;99992.22;20643826;28;97278;-76
2022/05/29 08:34:01;;;;;;;2.50;1.10;;;;;;;23.00;26.76;99985.97;20635432;28;100547;-75
2022/05/29 08:44:11;;;;;;;1.42;0.80;;;;;;;23.07;27.62;99986.22;20634283;28;98253;-78
2022/05/29 08:54:36;;;;;;;2.63;0.80;;;;;;;23.24;28.20;99979.41;20625617;28;97176;-75
2022/05/29 09:04:46;;;;;;;7.13;0.88;;;;;;;23.33;28.56;99973.28;20642096;28;97202;-77
2022/05/29 09:14:58;;;;;;;2.92;0.90;;;;;;;23.44;28.52;99957.25;20616467;28;100598;-76
2022/05/29 09:25:26;;;;;;;6.60;1.10;;;;;;;23.53;29.23;99966.09;20625324;28;100789;-76
2022/05/29 09:35:33;;;;;;;3.15;1.00;;;;;;;23.59;29.58;99949.66;20609409;28;100318;-73
2022/05/29 09:45:34;;;;;;;3.47;0.80;;;;;;;23.64;29.55;99944.81;20630042;27;97423;-74
2022/05/29 09:55:37;;;;;;;3.53;0.97;;;;;;;23.70;29.34;99943.38;20783234;27;100686;-74
2022/05/29 10:05:41;;;;;;;2.60;0.70;;;;;;;23.76;29.54;99937.50;20780128;27;99500;-77
2022/05/29 10:15:41;;;;;;;1.77;0.93;;;;;;;23.66;27.88;99926.16;20786192;27;99574;-76
2022/05/29 10:25:55;;;;;;;3.17;1.50;;;;;;;23.52;27.27;99923.97;20770764;27;103412;-77
2022/05/29 10:36:09;;;;;;;4.05;1.33;;;;;;;23.61;28.46;99920.47;20747369;27;97028;-76
2022/05/29 10:46:21;;;;;;;2.50;1.00;;;;;;;23.70;29.85;99926.69;20761009;27;99537;-75
2022/05/29 10:56:44;;;;;;;5.38;0.90;;;;;;;23.76;30.77;99912.88;20791813;27;97718;-74
2022/05/29 11:07:10;;;;;;;1.23;0.90;;;;;;;23.79;31.24;99913.41;20793271;27;100212;-76
2022/05/29 11:17:14;;;;;;;3.33;0.95;;;;;;;23.81;31.52;99892.97;20798912;27;98472;-76
2022/05/29 11:27:35;;;;;;;2.20;0.90;;;;;;;23.85;31.88;99897.94;20798127;27;97648;-76
2022/05/29 11:38:17;;;;;;;2.13;0.80;;;;;;;23.87;32.20;99882.78;20795343;27;97388;-75
2022/05/29 11:59:31;;;;;;;2.63;0.75;;;;;;;23.92;32.47;99873.41;20802787;27;97742;-76
2022/05/29 12:09:40;;;;;;;2.05;0.55;;;;;;;23.94;32.63;99866.19;20701873;27;99511;-76
2022/05/29 12:19:48;;;;;;;0.88;0.70;;;;;;;23.95;32.49;99851.16;20823406;27;96946;-75
2022/05/29 12:29:54;;;;;;;0.75;0.65;;;;;;;23.96;32.57;99858.94;20817061;27;97055;-76
2022/05/29 12:40:36;;;;;;;1.98;0.98;;;;;;;23.98;32.64;99856.13;20799738;27;97365;-76
2022/05/29 12:50:52;;;;;;;;;;;;;;;23.98;32.66;99846.38;20807262;27;98034;-74
2022/05/29 13:01:14;;;;;;;0.85;0.60;;;;;;;24.00;32.83;99851.53;20806797;27;96970;-75
2022/05/29 13:11:25;;;;;;;1.20;0.90;;;;;;;23.99;33.04;99857.81;20818159;27;96939;-75
2022/05/29 13:21:25;;;;;;;1.73;0.90;;;;;;;24.00;32.77;99850.69;20815072;27;97787;-74
2022/05/29 13:31:31;;;;;;;1.65;0.93;;;;;;;23.99;32.48;99857.81;20810335;27;98026;-76
2022/05/29 13:42:00;;;;;;;0.95;0.68;;;;;;;23.97;32.82;99852.66;20812298;27;99719;-76
2022/05/29 13:52:06;;;;;;;2.10;0.70;;;;;;;24.00;32.96;99824.25;20786238;27;97693;-75
2022/05/29 14:13:26;;;;;;;5.55;0.90;;;;;;;24.09;32.95;99800.34;20778883;27;97868;-77
2022/05/29 14:23:47;;;;;;;9.40;1.02;;;;;;;24.14;33.07;99792.81;20766698;27;100562;-76
2022/05/29 14:34:18;;;;;;;2.05;0.80;;;;;;;24.14;33.09;99799.91;20795767;27;97669;-76
2022/05/29 14:44:21;;;;;;;1.25;0.85;;;;;;;24.13;32.87;99795.59;20808230;27;96990;-77
2022/05/29 14:54:34;;;;;;;1.83;0.90;;;;;;;24.11;33.11;99781.72;20812914;27;97382;-76
2022/05/29 15:04:40;;;;;;;4.22;0.80;;;;;;;24.10;32.95;99794.09;20796192;27;97953;-77
2022/05/29 15:14:41;;;;;;;1.45;0.60;;;;;;;24.09;33.17;99778.38;20806595;27;97484;-76
2022/05/29 15:24:41;;;;;;;2.23;0.80;;;;;;;24.08;33.03;99774.06;20804774;27;98657;-75
2022/05/29 15:34:49;;;;;;;0.90;0.60;;;;;;;24.05;33.44;99771.75;20809688;27;97416;-77
2022/05/29 15:45:14;;;;;;;3.30;0.90;;;;;;;23.99;33.40;99775.81;20811770;27;97109;-76
2022/05/29 15:55:26;;;;;;;2.00;0.90;;;;;;;23.97;33.65;99791.00;20833790;27;97230;-77
2022/05/29 16:05:26;;;;;;;1.27;0.52;;;;;;;23.98;33.43;99813.81;20809610;27;100120;-77
2022/05/29 16:15:58;;;;;;;1.42;0.90;;;;;;;23.96;33.62;99843.06;20832033;27;97320;-77
2022/05/29 16:26:01;;;;;;;1.93;0.67;;;;;;;23.95;33.61;99836.13;20806608;27;99840;-78
2022/05/29 16:36:07;;;;;;;0.85;0.70;;;;;;;23.92;33.73;99836.41;20831497;27;96932;-78
2022/05/29 16:56:42;;;;;;;0.90;0.70;;;;;;;23.89;34.08;99827.91;20830425;27;99724;-76
2022/05/29 17:06:53;;;;;;;1.20;0.70;;;;;;;23.88;34.01;99842.13;20811008;27;98456;-77
2022/05/29 17:16:54;;;;;;;1.65;0.80;;;;;;;23.87;34.03;99820.13;20790973;27;97050;-76
2022/05/29 17:27:04;;;;;;;1.13;0.83;;;;;;;23.86;34.23;99818.47;20817514;27;97037;-77
2022/05/29 17:37:58;;;;;;;1.42;0.80;;;;;;;23.86;34.23;99802.59;20804342;27;97928;-77
2022/05/29 17:48:07;;;;;;;10.40;1.00;;;;;;;23.83;34.59;99769.38;20639508;27;98827;-76
2022/05/29 17:58:09;;;;;;;5.55;1.20;;;;;;;23.87;34.79;99754.03;20778390;27;100125;-75
2022/05/29 18:08:10;;;;;;;13.57;1.83;;;;;;;23.89;35.52;99746.78;20782307;27;99841;-79
2022/05/29 18:18:10;;;;;;;9.95;4.15;;;;;;;23.94;35.91;99741.09;20780482;27;99769;-79
2022/05/29 18:28:12;;;;;;;11.85;3.40;;;;;;;23.96;36.35;99752.31;20797049;27;97478;-81
2022/05/29 18:38:13;;;;;;;20.40;12.23;;;;;;;24.01;37.09;99744.78;20785113;27;98033;-79
2022/05/29 18:48:14;;;;;;;21.45;9.88;;;;;;;24.03;37.59;99758.66;20775209;27;98271;-77
2022/05/29 18:58:15;;;;;;;12.75;8.65;;;;;;;24.08;38.62;99747.63;20784035;27;98958;-78
2022/05/29 19:08:18;;;;;;;17.77;5.80;;;;;;;23.98;39.69;99772.31;20749514;27;98991;-76
2022/05/29 19:18:19;;;;;;;4.13;2.03;;;;;;;23.48;39.35;99764.91;20763525;27;98364;-75
2022/05/29 19:28:20;;;;;;;4.45;2.20;;;;;;;23.62;39.64;99755.59;20789095;27;97458;-76
2022/05/29 19:38:22;;;;;;;2.78;1.98;;;;;;;23.69;38.97;99761.13;20799466;27;103181;-77
2022/05/29 19:48:23;;;;;;;5.80;1.83;;;;;;;23.75;39.02;99790.44;20772827;27;98582;-75
2022/05/29 19:58:24;;;;;;;3.90;2.00;;;;;;;23.79;39.10;99805.03;20784991;27;98311;-75
2022/05/29 20:08:25;;;;;;;7.22;2.30;;;;;;;23.81;39.36;99766.06;20769391;27;96929;-75
2022/05/29 20:18:26;;;;;;;7.97;2.40;;;;;;;23.82;39.41;99753.66;20775039;27;97325;-75
2022/05/29 20:28:27;;;;;;;5.97;2.20;;;;;;;23.83;39.24;99787.06;20793975;27;97541;-74
2022/05/29 20:38:27;;;;;;;5.35;1.70;;;;;;;23.82;38.94;99773.00;20812464;27;99984;-74
2022/05/29 20:48:28;;;;;;;4.18;1.58;;;;;;;23.82;39.14;99761.59;20805387;27;97493;-75
2022/05/29 20:58:31;;;;;;;4.53;1.60;;;;;;;23.81;39.07;99734.34;20791973;27;98509;-75
2022/05/29 21:08:32;;;;;;;1.50;1.40;;;;;;;23.81;38.91;99733.50;20782198;27;97797;-75
2022/05/29 21:18:33;;;;;;;3.97;1.45;;;;;;;23.79;38.99;99780.38;20790721;27;97948;-76
2022/05/29 21:28:35;;;;;;;2.65;1.30;;;;;;;23.75;38.67;99768.47;20793903;27;97049;-76
2022/05/29 21:38:35;;;;;;;1.47;1.20;;;;;;;23.79;39.30;99760.09;20790141;27;97932;-76
2022/05/29 21:48:36;;;;;;;2.72;1.42;;;;;;;23.80;39.30;99760.91;20790154;27;99190;-75
2022/05/29 21:58:38;;;;;;;2.53;1.17;;;;;;;23.81;39.48;99758.13;20789503;27;96982;-75
2022/05/29 22:08:40;;;;;;;2.00;1.33;;;;;;;23.80;39.32;99766.19;20790904;27;100383;-76
2022/05/29 22:18:41;;;;;;;2.07;1.40;;;;;;;23.79;39.43;99772.47;20793218;27;99058;-76
2022/05/29 22:28:42;;;;;;;2.00;1.10;;;;;;;23.79;39.38;99767.16;20794479;27;100465;-74
2022/05/29 22:38:43;;;;;;;1.33;1.10;;;;;;;23.80;39.17;99766.19;20788718;27;97965;-76
2022/05/29 22:48:52;;;;;;;1.52;1.15;;;;;;;23.79;39.37;99781.25;20764288;27;99696;-76
2022/05/29 22:58:55;;;;;;;1.27;1.10;;;;;;;23.80;39.24;99752.97;20749199;27;98110;-77
2022/05/29 23:08:55;;;;;;;2.78;1.20;;;;;;;23.78;39.33;99755.78;20788225;27;97875;-76
2022/05/29 23:18:56;;;;;;;1.70;1.20;;;;;;;23.78;39.00;99757.59;20784317;27;99860;-75
2022/05/29 23:28:56;;;;;;;4.78;1.00;;;;;;;23.78;39.14;99739.09;20774778;27;97767;-76
2022/05/29 23:38:57;;;;;;;1.55;1.00;;;;;;;23.77;39.08;99764.69;20770247;27;97741;-76
2022/05/29 23:48:58;;;;;;;1.20;1.00;;;;;;;23.76;39.12;99752.44;20791487;27;100165;-76
2022/05/29 23:58:58;;;;;;;1.20;0.90;;;;;;;23.75;39.16;99768.47;20793995;27;97500;-76
